Aviation Digital Data Service (ADDS)

Output produced by METARs form (0516 UTC 27 March 2015)
found at http://www.aviationweather.gov/adds/metars/
 
KCXY 270456Z AUTO 32005KT 10SM BKN027 OVC100 08/04 A2977 RMK AO2 RAB45E56 SLP081 P0000 T00780039 402221006
KCXY 270356Z AUTO 33005KT 10SM BKN110 08/04 A2976 RMK AO2 RAE09 SLP080 P0000 T00780039
KCXY 270256Z AUTO 34007KT 10SM -RA BKN100 OVC120 08/04 A2975 RMK AO2 RAB09 SLP077 P0001 60001 T00780039 50024
KCXY 270156Z AUTO 33009KT 10SM SCT026 SCT065 OVC095 08/04 A2975 RMK AO2 RAB05E50 SLP078 P0000 T00830039
KCXY 270145Z AUTO 33010KT 10SM -RA SCT024 SCT065 OVC090 08/04 A2974 RMK AO2 RAB05 P0000 T00830044
KCXY 270056Z AUTO 33012G19KT 10SM OVC020 10/06 A2972 RMK AO2 RAB2357E10 SLP066 P0000 T01000061
KCXY 270042Z AUTO 31010KT 10SM BKN021 BKN100 11/07 A2972 RMK AO2 RAB2357E10 P0000 T01060067
KCXY 270007Z AUTO 31014G20KT 10SM -RA FEW023 BKN075 OVC090 12/07 A2968 RMK AO2 RAB2357 P0000 T01170072
KCXY 262356Z 33013KT 10SM BKN023 BKN029 OVC065 12/07 A2968 RMK AO2 TSE09 SLP053 60045 T01220072 10222 20122 50015
KCXY 262353Z 34011G25KT 10SM BKN023 BKN029 OVC060 12/08 A2968 RMK AO2 TSE09
KCXY 262315Z 31008KT 9SM FEW021 BKN060 OVC070 13/10 A2965 RMK AO2 LTG DSNT E AND SE TSE09 T01330100
KCXY 262256Z 33009KT 10SM TS FEW038 BKN050 OVC060 14/11 A2964 RMK AO2 LTG DSNT NE AND E RAB2158E37 TSB04E41B49 SLP037 P0045 T01390106
KCXY 262247Z 32012KT 9SM VCTS SCT036 OVC048 14/11 A2964 RMK AO2 LTG DSNT ALQDS RAB2158E37 TSB04E41 PRESRR P0045 T01390106
KCXY 262223Z 31007KT 3SM TSRA BR FEW011 BKN030 OVC034 13/11 A2961 RMK AO2 LTG DSNT NE AND SW RAB2158 TSB04 P0045 T01330111
KCXY 262219Z 32009G19KT 1 3/4SM +TSRA BR FEW011 BKN030 OVC065 13/12 A2961 RMK AO2 LTG DSNT NE AND SW RAB2158 TSB04 P0045 T01330117
KCXY 262217Z 32009G22KT 1SM R08/4000VP6000FT +TSRA BR FEW008 BKN028 OVC065 13/12 A2961 RMK AO2 LTG DSNT NE AND SW RAB2158 TSB04 P0044 T01330117
KCXY 262212Z 31013G22KT 1/4SM R08/2000VP6000FT +TSRA FG SCT011 BKN022 OVC065 13/12 A2961 RMK AO2 LTG DSNT NE AND SW RAB2158 TSB04 PRESRR P0042 T01330122
KCXY 262205Z 32011G22KT 1/2SM R08/2200VP6000FT +TSRA FG SCT008 SCT018 BKN034 14/12 A2959 RMK AO2 LTG DSNT SW RAB2158 TSB04 P0026 T01390122
KCXY 262203Z 30008G17KT 1 1/2SM R08/3000VP6000FT RA BR FEW010 SCT018 BKN070 14/12 A2959 RMK AO2 LTG DSNT SW RAB2158 PRESRR P0012 T01440122
KCXY 262156Z 10SM FEW035 SCT070 20/13 A2956 RMK AO2 LTG DSNT SW PRESRR SLP013 T02000128
KCXY 262056Z 18012G21KT 10SM FEW034 BKN110 22/13 A2956 RMK AO2 SLP012 T02170128 56043
KCXY 261956Z 18012KT 10SM SCT031 21/13 A2958 RMK AO2 SLP020 T02110128
KCXY 261856Z 10007KT 8SM BKN030 17/10 A2963 RMK AO2 SLP036 T01720100
KCXY 261756Z 11009KT 7SM OVC018 14/08 A2969 RMK AO2 PRESFR SLP055 60000 T01390078 10139 20017 56060
KCXY 261656Z 10009KT 7SM OVC017 12/06 A2975 RMK AO2 SLP076 T01220061
KCXY 261625Z 10008KT 6SM HZ BKN018 OVC085 11/05 A2977 RMK AO2 T01060050
KCXY 261556Z 08006KT 6SM HZ SCT018 SCT049 BKN090 09/04 A2980 RMK AO2 RAB09E19 PRESFR SLP093 P0000 T00940044
KCXY 261519Z 09007KT 5SM HZ OVC015 07/03 A2985 RMK AO2 RAB09E19 P0000 T00720033
KCXY 261456Z 08004KT 5SM HZ OVC013 06/03 A2987 RMK AO2 SLP117 T00610028 56026
KCXY 261435Z 10006KT 5SM HZ OVC014 06/03 A2988 RMK AO2 T00610028
KCXY 261356Z 11004KT 5SM HZ OVC016 06/03 A2989 RMK AO2 SLP124 T00560028
KCXY 261256Z 09004KT 3SM BR OVC019 03/02 A2992 RMK AO2 SLP135 T00330017
KCXY 261231Z 00000KT 3SM BR OVC022 03/01 A2993 RMK AO2 T00280011
KCXY 261212Z 00000KT 2 1/2SM BR BKN020 BKN026 02/01 A2995 RMK AO2 T00220011
KCXY 261156Z 00000KT 2 1/2SM BR FEW026 02/01 A2994 RMK AO2 SLP144 70006 T00170006 10022 21006 55022
KCXY 261136Z 00000KT 2SM BR FEW026 SCT100 01/01 A2994 RMK AO2 T00110006
KCXY 261127Z 10003KT 1 3/4SM BR BKN100 01/00 A2994 RMK AO2 T00110000
KCXY 261111Z 12003KT 2SM BR BKN100 01/01 A2995 RMK AO2 T00060006
KCXY 261056Z 07003KT 3SM BR FEW100 02/01 A2994 RMK AO2 SLP144 T00170006
KCXY 260956Z AUTO 00000KT 4SM BR FEW100 01/M01 A2998 RMK AO2 SLP155 T00061006
KCXY 260906Z AUTO 00000KT 3SM BR SCT090 00/M01 A3000 RMK AO2 T00001006
KCXY 260856Z AUTO 00000KT 2 1/2SM BR FEW095 00/M01 A3001 RMK AO2 SLP166 T00001006 58023
KCXY 260756Z AUTO 00000KT 4SM BR CLR 01/M01 A3004 RMK AO2 SLP176 T00061006
KCXY 260656Z AUTO 09004KT 6SM BR CLR 01/00 A3005 RMK AO2 SLP182 T00110000
KCXY 260556Z AUTO 11004KT 7SM CLR 01/00 A3008 RMK AO2 SLP190 T00110000 10056 20011 58021
KCXY 260456Z AUTO 00000KT 8SM CLR 02/00 A3011 RMK AO2 SLP199 T00170000 400611044
KCXY 260440Z AUTO 07003KT 8SM SCT024 03/01 A3011 RMK AO2 T00330006
KCXY 260356Z AUTO 00000KT 7SM OVC024 04/01 A3014 RMK AO2 SLP210 T00440011
KCXY 260256Z AUTO 11004KT 10SM OVC025 03/01 A3014 RMK AO2 SLP211 T00330006 58009
KCXY 260156Z AUTO 11007KT 10SM OVC025 04/01 A3016 RMK AO2 SLP216 T00440006
KCXY 260056Z AUTO 11008KT 10SM OVC029 05/01 A3017 RMK AO2 SLP220 T00500006
KCXY 260049Z AUTO 12008KT 10SM OVC029 05/01 A3017 RMK AO2 T00500006
KCXY 252356Z 10006KT 10SM OVC032 06/00 A3017 RMK AO2 SLP221 60000 T00560000 10061 20017 58013
KCXY 252256Z 10006KT 10SM OVC032 06/00 A3019 RMK AO2 SLP226 T00560000
KCXY 252156Z 10008KT 10SM OVC034 05/M01 A3020 RMK AO2 SLP231 T00501006
KCXY 252056Z 10007KT 10SM OVC034 04/M01 A3021 RMK AO2 RAE19 SLP235 P0000 60000 T00441006 56028
KCXY 251956Z 10009KT 10SM -RA OVC036 04/M01 A3022 RMK AO2 RAB56 SLP237 P0000 T00391011
KCXY 251856Z 11007KT 10SM OVC037 03/M01 A3025 RMK AO2 SLP249 T00281011
KCXY 251756Z 12008KT 10SM OVC040 02/M02 A3029 RMK AO2 RAB1657E44 SLP263 P0000 60006 T00171017 10022 21022 58026